Startpagina
METAR-TAF:

METAR-TAF

Vliegvelden :

Vliegbasis Gilze-Rijen

Gilze-Rijen, Nederland

breedte: 51-34N, lengte: 004-56E, hoogte: 15 m

Actueel weer

Dit bericht is 26 minuten geleden gemaakt, om 03:25 UTC
Weinig wind
Temperatuur 17°C
Vochtigheid 94%
Druk 1020 hPa
Zicht 10 km of meer
Gebroken wolken op 4600 ft
Geheel bewolkt op 5000 ft

METAR: EHGR 210325Z AUTO 00000KT 9999 BKN046 OVC050 17/16 Q1020 BLU

Tijdstip: 05:51 (03:51 UTC)

Verwachting

Dit bericht is 15 uur en het 29 minuten geleden gemaakt, om 12:22 UTC
Verwachting geldig van 20 om 13 UTC tot 21 om 01 UTC
Wind 6 kt uit het westnoordwesten
Zicht 10 km of meer
Verspreide wolken op 2500 ft
Gebroken wolken op 4500 ft
Wijzigt naar
van 20 om 18 UTC tot 20 om 21 UTC
Wind 3 kt uit variabele richting

TAF: EHGR 201222Z 2013/2101 30006KT 9999 SCT025 BKN045 BECMG 2018/2021 VRB03KT

Waarnemingen en weersverwachtingen van meer dan 4000 vliegvelden (METAR en TAF).

De beschikbare stations zijn de gele en rode punten op de kaart.

Ga met uw muis naar het station om de naam te zien.

Klik dan om waarnemingen en weersverwachtingen te zien.

kaart wijzigen: klik op de groene knoppen met een zwart kruis om in te zoomen, op de groene knop met een streepje om uit te zoomen of op de groene pijlen voor aangrenzende kaarten.


METAR-TAF: